Pays
Station

 

Conditions  météo  pour  Nausori  -  Fidji    Fidji

  
25 °C
    
 
 

METAR pour Nausori :

NFNA 230400Z 17008KT 9999 BKN020 BKN045 25/20 Q1012

 

Voici le bulletin pour Nausori - Fidji.
 
Le bulletin a été fait il y a 22 minutes, à 04:00 UTC .
Le vent soufflait à la vitesse de 4.1 mètres par seconde de Sud (170°).
 
La température était de 25 °C, avec un point de rosée à 20 °C.
La température ressentie était de 26 °C.
 
La pression atmosphérique était de 1012 hPa.
L'humidité relative était de 73.8%.
 
Il y avait 5 à 7/8ème de nébulosité à une hauteur de 610 mètres et 5 à 7/8ème de nébulosité à une hauteur de 1372 mètres.
 
La visibilité globale était de supérieure à 10 kilomètres.
 

 
 
 

Pays :   A   B   C   D   E   F   G   H   I   J   K   L   M   N   O   P   Q   R   S   T   U   V   W   Y   Z

 

Partenaires :  Info Météo avec Met'info
Météo Marine avec MeteoMarine.net
Infos Site  |  Infos Légales  |  Crédits  |  Confidentialité
Contactez-nous  |  Ajouter aux favoris
© 2013-2018 METAR - Tous droits réservés